Time;durP1;ratioP1;P1;durP2;ratioP2;P2;SDS_P1;SDS_P2;PMS_P1;PMS_P2;Temp;Humidity;BMP_temperature;BMP_pressure;BME280_temperature;BME280_humidity;BME280_pressure;Samples;Min_cycle;Max_cycle;Signal;HPM_P1;HPM_P2
2023/03/14 00:02:09;;;;;;;7.32;4.78;;;;;;;14.46;62.35;98247.66;5092164;28;20032;-59
2023/03/14 00:04:36;;;;;;;7.63;5.10;;;;;;;14.42;62.54;98240.88;5075676;28;20119;-59
2023/03/14 00:07:01;;;;;;;11.60;5.03;;;;;;;14.46;62.45;98245.00;5093160;28;20023;-59
2023/03/14 00:09:27;;;;;;;8.50;5.07;;;;;;;14.43;62.62;98250.50;5093337;28;20032;-59
2023/03/14 00:11:53;;;;;;;9.57;6.70;;;;;;;14.42;62.53;98243.53;5093304;28;20411;-59
2023/03/14 00:14:18;;;;;;;7.75;5.03;;;;;;;14.52;62.29;98259.59;5093310;28;20040;-59
2023/03/14 00:16:47;;;;;;;9.32;5.28;;;;;;;14.47;62.27;98249.31;5093136;28;20038;-59
2023/03/14 00:19:13;;;;;;;9.05;5.68;;;;;;;14.56;62.05;98242.56;5092157;28;20110;-58
2023/03/14 00:21:38;;;;;;;6.80;5.22;;;;;;;14.52;62.29;98252.53;5093488;28;20162;-59
2023/03/14 00:24:05;;;;;;;8.65;4.97;;;;;;;14.51;62.39;98271.97;5091596;28;20036;-59
2023/03/14 00:26:31;;;;;;;8.38;5.57;;;;;;;14.64;62.03;98252.59;5093010;28;20036;-59
2023/03/14 00:28:56;;;;;;;8.13;5.28;;;;;;;14.70;61.70;98247.72;5092466;28;20032;-59
2023/03/14 00:31:22;;;;;;;5.68;4.30;;;;;;;14.81;61.52;98254.03;5091459;28;20059;-59
2023/03/14 00:33:47;;;;;;;6.70;4.47;;;;;;;14.83;61.34;98247.66;5092416;28;20028;-59
2023/03/14 00:36:15;;;;;;;8.88;5.22;;;;;;;14.85;61.21;98251.06;5091248;28;20475;-59
2023/03/14 00:38:41;;;;;;;9.30;5.00;;;;;;;14.86;61.31;98243.97;5091792;28;20127;-58
2023/03/14 00:41:10;;;;;;;7.72;5.10;;;;;;;14.98;60.92;98253.66;5092489;28;20115;-58
2023/03/14 00:43:35;;;;;;;7.47;4.53;;;;;;;15.03;60.79;98254.97;5086584;28;20390;-59
2023/03/14 00:46:01;;;;;;;6.07;4.00;;;;;;;15.08;60.74;98259.09;5092546;28;20028;-59
2023/03/14 00:48:27;;;;;;;8.10;4.20;;;;;;;15.08;60.71;98253.78;5091810;28;20104;-58
2023/03/14 00:50:52;;;;;;;6.35;4.47;;;;;;;15.09;60.62;98237.00;5092471;28;20437;-58
2023/03/14 00:53:18;;;;;;;5.72;4.32;;;;;;;15.05;60.77;98241.66;5091598;28;20055;-58
2023/03/14 00:55:44;;;;;;;7.47;4.35;;;;;;;14.99;60.95;98237.66;5091369;28;20024;-58
2023/03/14 00:58:15;;;;;;;7.45;4.18;;;;;;;15.07;60.48;98228.31;5092528;28;20059;-58
2023/03/14 01:00:41;;;;;;;6.18;3.97;;;;;;;15.19;60.31;98235.34;5092893;28;20066;-59
2023/03/14 01:03:08;;;;;;;5.35;3.72;;;;;;;15.26;60.06;98232.13;5092525;28;20032;-58
2023/03/14 01:05:34;;;;;;;6.95;3.78;;;;;;;15.27;60.06;98222.38;5092773;28;20046;-58
2023/03/14 01:08:00;;;;;;;5.78;3.85;;;;;;;15.27;59.92;98212.63;5092596;28;20454;-58
2023/03/14 01:10:26;;;;;;;9.07;5.10;;;;;;;15.24;60.06;98218.19;5091246;28;20043;-58
2023/03/14 01:12:51;;;;;;;9.38;5.35;;;;;;;15.26;60.03;98210.13;5092638;28;20028;-58
2023/03/14 01:15:17;;;;;;;7.47;4.82;;;;;;;15.33;59.81;98192.84;5092656;28;20048;-59
2023/03/14 01:17:43;;;;;;;8.10;4.57;;;;;;;15.32;59.71;98180.56;5092724;28;20036;-60
2023/03/14 01:20:12;;;;;;;7.32;4.72;;;;;;;15.22;59.93;98167.19;5091332;28;20032;-59
2023/03/14 01:22:39;;;;;;;6.65;4.18;;;;;;;15.23;59.83;98170.66;5084924;28;20031;-59
2023/03/14 01:25:06;;;;;;;6.53;4.18;;;;;;;15.13;60.12;98169.69;5072038;28;20082;-59
2023/03/14 01:27:32;;;;;;;5.68;3.85;;;;;;;15.18;59.93;98173.66;5091126;28;20114;-59
2023/03/14 01:29:58;;;;;;;6.70;3.78;;;;;;;15.22;59.86;98174.28;5091323;28;20124;-59
2023/03/14 01:32:25;;;;;;;7.95;3.92;;;;;;;15.16;59.95;98180.88;5090605;28;20043;-59
2023/03/14 01:34:51;;;;;;;5.90;3.80;;;;;;;15.20;59.89;98176.19;5092832;28;20032;-59
2023/03/14 01:37:16;;;;;;;7.25;3.78;;;;;;;15.19;59.88;98164.75;5092022;28;20056;-59
2023/03/14 01:39:42;;;;;;;6.55;4.28;;;;;;;15.21;59.77;98162.84;5092532;28;20036;-59
2023/03/14 01:42:07;;;;;;;7.30;4.13;;;;;;;15.19;59.85;98166.56;5094616;28;20044;-60
2023/03/14 01:44:55;;;;;;;7.25;4.20;;;;;;;15.10;60.24;98159.34;5095074;28;20036;-60
2023/03/14 01:47:21;;;;;;;5.88;3.42;;;;;;;15.21;59.73;98170.78;5095779;28;20073;-59
2023/03/14 01:50:01;;;;;;;5.28;3.58;;;;;;;15.24;59.65;98177.63;5094588;28;20077;-59
2023/03/14 01:52:37;;;;;;;5.28;3.55;;;;;;;15.09;60.10;98160.31;5094902;28;20032;-59
2023/03/14 01:55:06;;;;;;;5.38;3.75;;;;;;;15.23;59.49;98170.66;5095058;28;20024;-59
2023/03/14 01:57:39;;;;;;;5.00;3.50;;;;;;;15.19;59.78;98166.56;5095333;28;20074;-60
2023/03/14 02:00:12;;;;;;;5.57;3.58;;;;;;;15.23;59.68;98165.38;5095552;28;20039;-59
2023/03/14 02:02:39;;;;;;;5.13;3.35;;;;;;;15.24;59.60;98159.97;5089747;28;20039;-59
2023/03/14 02:05:05;;;;;;;6.50;4.00;;;;;;;15.21;59.54;98154.06;5093247;28;20364;-59
2023/03/14 02:07:39;;;;;;;7.65;4.05;;;;;;;15.18;59.58;98143.72;5093835;28;20035;-59
2023/03/14 02:10:05;;;;;;;5.38;3.30;;;;;;;15.13;59.65;98159.09;5096373;28;20080;-59
2023/03/14 02:12:32;;;;;;;5.90;3.63;;;;;;;15.08;59.82;98138.31;5095745;28;20046;-60
2023/03/14 02:14:57;;;;;;;5.85;3.30;;;;;;;15.03;59.77;98141.25;5095488;28;20050;-59
2023/03/14 02:17:24;;;;;;;5.63;3.20;;;;;;;14.95;60.11;98145.44;5095335;28;20039;-59
2023/03/14 02:20:09;;;;;;;5.25;3.25;;;;;;;14.96;59.91;98137.41;5095604;28;20069;-60
2023/03/14 02:22:36;;;;;;;5.88;3.80;;;;;;;14.85;60.21;98144.47;5093706;28;20455;-59
2023/03/14 02:25:22;;;;;;;5.10;3.30;;;;;;;14.81;60.61;98137.72;5093919;28;20055;-59
2023/03/14 02:27:48;;;;;;;5.53;3.30;;;;;;;14.87;60.12;98129.31;5094065;28;20403;-61
2023/03/14 02:30:23;;;;;;;6.85;3.08;;;;;;;14.86;60.21;98143.50;5095146;28;20024;-59
2023/03/14 02:32:54;;;;;;;4.65;2.88;;;;;;;14.85;60.28;98134.72;5095596;28;20020;-60
2023/03/14 02:35:22;;;;;;;5.05;3.00;;;;;;;14.82;60.33;98126.19;5095421;28;20364;-60
2023/03/14 02:38:03;;;;;;;5.90;3.00;;;;;;;14.87;60.22;98126.66;5093646;28;20444;-60
2023/03/14 02:40:28;;;;;;;4.07;3.03;;;;;;;14.84;60.39;98121.59;5094355;28;20467;-60
2023/03/14 02:42:54;;;;;;;4.55;2.80;;;;;;;14.91;60.22;98126.31;5094727;28;20052;-60
2023/03/14 02:45:33;;;;;;;5.80;3.05;;;;;;;14.84;60.15;98126.91;5095230;28;20124;-59
2023/03/14 02:48:04;;;;;;;4.38;2.38;;;;;;;14.90;59.92;98116.72;5094966;28;20050;-59
2023/03/14 02:50:33;;;;;;;4.82;2.67;;;;;;;14.91;60.01;98134.25;5095207;28;20028;-59
2023/03/14 02:52:59;;;;;;;3.85;2.40;;;;;;;14.86;60.12;98127.63;5093929;28;20040;-59
2023/03/14 02:55:26;;;;;;;4.75;2.90;;;;;;;14.90;59.98;98140.50;5094440;28;20577;-58
2023/03/14 02:57:53;;;;;;;4.97;2.70;;;;;;;14.89;59.88;98141.47;5095478;28;20028;-58
2023/03/14 03:00:19;;;;;;;4.15;2.70;;;;;;;14.87;60.00;98146.03;5094970;28;20040;-58
2023/03/14 03:02:45;;;;;;;4.78;2.47;;;;;;;14.86;59.94;98154.91;5093620;28;20063;-58
2023/03/14 03:05:11;;;;;;;3.70;2.30;;;;;;;14.90;59.83;98148.44;5093480;28;20468;-58
2023/03/14 03:07:36;;;;;;;5.82;2.60;;;;;;;14.88;59.91;98145.09;5095430;28;20025;-58
2023/03/14 03:10:02;;;;;;;4.40;2.63;;;;;;;14.85;59.93;98150.59;5092516;28;20043;-58
2023/03/14 03:12:28;;;;;;;5.40;2.53;;;;;;;14.84;59.83;98148.91;5094658;28;20036;-58
2023/03/14 03:14:53;;;;;;;3.17;2.33;;;;;;;14.85;60.00;98155.88;5094944;28;20380;-58
2023/03/14 03:17:19;;;;;;;4.22;2.22;;;;;;;14.91;59.74;98155.41;5090767;28;20066;-58
2023/03/14 03:19:44;;;;;;;4.45;2.67;;;;;;;14.87;59.96;98156.59;5093380;28;20058;-58
2023/03/14 03:22:10;;;;;;;4.90;2.50;;;;;;;14.92;59.75;98170.34;5093234;28;20493;-58
2023/03/14 03:24:35;;;;;;;4.60;2.60;;;;;;;14.97;59.71;98164.69;5094929;28;20044;-58
2023/03/14 03:27:01;;;;;;;4.05;2.50;;;;;;;15.01;59.53;98174.94;5094222;28;20162;-58
2023/03/14 03:29:26;;;;;;;4.28;2.58;;;;;;;15.04;59.48;98176.50;5093252;28;20089;-58
2023/03/14 03:31:53;;;;;;;4.85;2.13;;;;;;;15.18;59.20;98188.69;5094061;28;20039;-59
2023/03/14 03:34:18;;;;;;;3.22;2.05;;;;;;;15.14;59.27;98189.88;5094070;28;20036;-59
2023/03/14 03:36:44;;;;;;;4.13;2.00;;;;;;;15.31;59.02;98191.25;5092823;28;20043;-59
2023/03/14 03:39:09;;;;;;;4.78;2.10;;;;;;;15.31;58.98;98189.44;5094132;28;20036;-58
2023/03/14 03:41:35;;;;;;;3.08;2.20;;;;;;;15.31;59.00;98192.09;5093452;28;20036;-59
2023/03/14 03:44:00;;;;;;;4.07;2.30;;;;;;;15.39;58.78;98186.22;5092650;28;20028;-58
2023/03/14 03:46:26;;;;;;;4.60;2.35;;;;;;;15.57;58.32;98181.34;5092392;28;20059;-60
2023/03/14 03:48:56;;;;;;;3.50;2.08;;;;;;;15.53;58.18;98184.22;5091111;28;20059;-59
2023/03/14 03:51:21;;;;;;;3.20;1.90;;;;;;;15.52;58.40;98187.84;5093843;28;20036;-60
2023/03/14 03:53:46;;;;;;;5.22;2.05;;;;;;;15.56;58.42;98185.78;5094468;28;20039;-60
2023/03/14 03:56:12;;;;;;;4.45;2.38;;;;;;;15.60;58.14;98173.13;5093515;28;20040;-60
2023/03/14 03:58:38;;;;;;;4.13;2.65;;;;;;;15.69;58.05;98183.06;5093361;28;20036;-60
2023/03/14 04:01:05;;;;;;;4.82;2.40;;;;;;;15.68;57.86;98176.09;5092093;28;20042;-60
2023/03/14 04:03:30;;;;;;;4.45;2.13;;;;;;;15.72;57.88;98156.38;5092845;28;20036;-60
2023/03/14 04:06:00;;;;;;;4.25;2.40;;;;;;;15.62;57.87;98140.31;5093369;28;20081;-60
2023/03/14 04:08:26;;;;;;;3.65;2.17;;;;;;;15.59;58.11;98142.34;5091732;28;20063;-60
2023/03/14 04:10:55;;;;;;;3.42;2.03;;;;;;;15.49;58.35;98129.84;5094124;28;20071;-59
2023/03/14 04:13:20;;;;;;;3.92;2.25;;;;;;;15.50;58.42;98134.16;5090140;28;20016;-60
2023/03/14 04:15:46;;;;;;;3.63;2.38;;;;;;;15.56;58.28;98134.63;5093909;28;20055;-60
2023/03/14 04:18:11;;;;;;;3.85;2.30;;;;;;;15.49;58.45;98124.53;5090716;28;20032;-60
2023/03/14 04:20:37;;;;;;;3.13;2.00;;;;;;;15.49;58.28;98124.53;5091179;28;20085;-59
2023/03/14 04:23:02;;;;;;;3.10;1.88;;;;;;;15.50;58.30;98123.56;5089583;28;20036;-59
2023/03/14 04:25:28;;;;;;;3.50;1.90;;;;;;;15.49;58.38;98118.41;5092590;28;20073;-59
2023/03/14 04:27:53;;;;;;;3.67;2.35;;;;;;;15.48;58.43;98125.50;5093448;28;20055;-60
2023/03/14 04:30:19;;;;;;;2.60;1.73;;;;;;;15.47;58.53;98117.66;5093153;28;20399;-59
2023/03/14 04:32:44;;;;;;;2.65;1.80;;;;;;;15.51;58.38;98117.31;5092054;28;20036;-60
2023/03/14 04:35:10;;;;;;;3.25;1.60;;;;;;;15.49;58.48;98113.13;5091001;28;20536;-59
2023/03/14 04:37:35;;;;;;;3.22;1.88;;;;;;;15.38;58.87;98099.88;5088996;28;20498;-60
2023/03/14 04:40:01;;;;;;;4.03;1.95;;;;;;;15.48;58.32;98095.56;5090276;28;20035;-59
2023/03/14 04:42:26;;;;;;;3.10;1.80;;;;;;;15.50;58.59;98088.34;5092201;28;20024;-60
2023/03/14 04:44:52;;;;;;;4.03;1.75;;;;;;;15.57;58.49;98092.19;5074894;28;20476;-59
2023/03/14 04:47:17;;;;;;;2.67;1.60;;;;;;;15.63;58.30;98086.41;5091392;28;20036;-60
2023/03/14 04:49:42;;;;;;;3.33;1.70;;;;;;;15.67;58.17;98087.03;5091723;28;20036;-59
2023/03/14 04:52:08;;;;;;;3.70;2.30;;;;;;;15.69;58.22;98088.59;5091860;28;20039;-59
2023/03/14 04:54:34;;;;;;;4.03;1.92;;;;;;;15.68;58.30;98086.94;5071754;28;20032;-59
2023/03/14 04:56:59;;;;;;;3.65;1.98;;;;;;;15.75;58.13;98081.97;5090523;28;20395;-59
2023/03/14 04:59:25;;;;;;;3.88;1.80;;;;;;;15.77;58.05;98075.59;5088905;28;20482;-60
2023/03/14 05:01:50;;;;;;;3.30;1.73;;;;;;;15.74;58.32;98064.41;5092327;28;20055;-60
2023/03/14 05:04:16;;;;;;;3.40;1.65;;;;;;;15.79;57.98;98051.66;5091063;28;20402;-59
2023/03/14 05:06:42;;;;;;;3.33;1.70;;;;;;;15.82;58.10;98059.34;5092281;28;20086;-60
2023/03/14 05:09:08;;;;;;;3.08;1.80;;;;;;;15.80;58.18;98042.75;5091760;28;20040;-59
2023/03/14 05:11:33;;;;;;;4.20;1.83;;;;;;;15.69;58.67;98048.06;5093291;28;20111;-59
2023/03/14 05:13:58;;;;;;;2.70;1.58;;;;;;;15.76;58.50;98050.09;5093056;28;20382;-59
2023/03/14 05:16:24;;;;;;;3.55;1.40;;;;;;;15.86;58.25;98047.56;5094433;28;20421;-59
2023/03/14 05:18:50;;;;;;;4.97;1.85;;;;;;;15.87;58.29;98043.94;5096405;28;20033;-60
2023/03/14 05:21:16;;;;;;;4.55;1.65;;;;;;;15.86;58.30;98042.25;5096604;28;20051;-59
2023/03/14 05:23:41;;;;;;;2.30;1.42;;;;;;;15.87;58.31;98049.22;5093740;28;20040;-59
2023/03/14 05:26:07;;;;;;;3.30;1.83;;;;;;;15.91;58.44;98034.78;5092376;28;20105;-59
2023/03/14 05:28:32;;;;;;;3.92;1.60;;;;;;;15.91;58.50;98034.78;5091885;28;20093;-59
2023/03/14 05:30:57;;;;;;;5.40;2.25;;;;;;;15.93;58.58;98043.44;5095347;28;20121;-60
2023/03/14 05:33:23;;;;;;;3.60;2.10;;;;;;;16.01;58.36;98048.97;5096216;28;20024;-60
2023/03/14 05:35:48;;;;;;;3.03;1.42;;;;;;;16.07;58.52;98052.06;5089382;28;20090;-60
2023/03/14 05:38:14;;;;;;;2.20;1.25;;;;;;;16.11;58.28;98048.22;5093247;28;20143;-60
2023/03/14 05:40:39;;;;;;;2.65;1.33;;;;;;;16.11;58.54;98056.16;5096204;28;20027;-60
2023/03/14 05:43:07;;;;;;;2.85;1.48;;;;;;;16.15;58.49;98073.50;5077755;28;20034;-60
2023/03/14 05:45:34;;;;;;;4.22;1.20;;;;;;;16.17;58.36;98074.22;5094612;28;20077;-59
2023/03/14 05:47:59;;;;;;;1.85;1.48;;;;;;;16.21;58.28;98073.00;5094746;28;20093;-59
2023/03/14 05:50:24;;;;;;;4.07;2.10;;;;;;;16.24;58.36;98078.91;5092805;28;20464;-60
2023/03/14 05:52:50;;;;;;;3.25;1.92;;;;;;;16.25;58.28;98082.38;5095554;28;20039;-60
2023/03/14 05:55:15;;;;;;;2.60;2.00;;;;;;;16.32;58.12;98088.00;5095493;28;20036;-59
2023/03/14 05:57:41;;;;;;;3.75;2.35;;;;;;;16.38;58.05;98083.06;5092777;28;20044;-59
2023/03/14 06:00:07;;;;;;;3.70;2.40;;;;;;;16.48;57.81;98075.22;5075096;28;20089;-59
2023/03/14 06:02:32;;;;;;;2.55;1.90;;;;;;;16.51;57.89;98070.47;5093037;28;20043;-59
2023/03/14 06:04:58;;;;;;;3.95;2.53;;;;;;;16.54;57.69;98068.56;5094499;28;20036;-59
2023/03/14 06:07:23;;;;;;;5.55;2.50;;;;;;;16.51;57.90;98064.34;5094545;28;20081;-59
2023/03/14 06:09:49;;;;;;;4.32;2.33;;;;;;;16.51;58.08;98065.19;5078882;28;20487;-59
2023/03/14 06:12:14;;;;;;;3.33;2.03;;;;;;;16.54;57.87;98063.25;5075868;28;20041;-59
2023/03/14 06:14:40;;;;;;;4.88;2.10;;;;;;;16.59;57.82;98074.31;5089559;28;20089;-59
2023/03/14 06:17:05;;;;;;;4.63;2.58;;;;;;;16.57;58.08;98087.72;5094239;28;20032;-60
2023/03/14 06:19:30;;;;;;;3.70;2.38;;;;;;;16.66;57.75;98086.94;5096332;28;20493;-59
2023/03/14 06:21:56;;;;;;;4.38;2.45;;;;;;;16.75;57.60;98088.00;5096180;28;20452;-60
2023/03/14 06:24:21;;;;;;;5.97;2.58;;;;;;;16.80;57.40;98079.69;5096324;28;20387;-60
2023/03/14 06:26:47;;;;;;;5.82;2.95;;;;;;;16.87;57.50;98076.38;5094685;28;20540;-60
2023/03/14 06:29:13;;;;;;;4.35;2.25;;;;;;;17.07;57.17;98071.22;5095054;28;20043;-59
2023/03/14 06:31:38;;;;;;;5.40;2.13;;;;;;;17.26;56.63;98076.63;5096113;28;20533;-60
2023/03/14 06:34:04;;;;;;;4.82;2.22;;;;;;;17.37;56.29;98084.53;5096321;28;20049;-60
2023/03/14 06:36:29;;;;;;;3.70;2.60;;;;;;;17.45;56.29;98086.53;5095869;28;20380;-60
2023/03/14 06:38:55;;;;;;;5.45;3.05;;;;;;;17.52;55.96;98081.53;5095877;28;20094;-59
2023/03/14 06:41:23;;;;;;;4.93;2.83;;;;;;;17.48;56.05;98096.88;5095972;28;20486;-59
2023/03/14 06:43:49;;;;;;;6.25;3.40;;;;;;;17.45;56.16;98097.97;5095982;28;20036;-59
2023/03/14 06:46:15;;;;;;;5.32;2.92;;;;;;;17.45;56.11;98084.69;5096065;28;20119;-59
2023/03/14 06:48:41;;;;;;;6.45;3.70;;;;;;;17.46;56.22;98091.69;5090453;28;20397;-59
2023/03/14 06:51:06;;;;;;;5.28;3.22;;;;;;;17.46;56.11;98091.69;5093473;28;20038;-60
2023/03/14 06:53:32;;;;;;;5.03;2.88;;;;;;;17.44;56.33;98095.47;5093593;28;20080;-59
2023/03/14 06:55:57;;;;;;;4.68;2.63;;;;;;;17.33;56.39;98103.50;5094134;28;20088;-59
2023/03/14 06:58:23;;;;;;;3.90;2.78;;;;;;;17.34;56.41;98092.75;5077428;28;20043;-59
2023/03/14 07:00:48;;;;;;;6.10;3.20;;;;;;;17.36;56.47;98098.78;5095712;28;20028;-59
2023/03/14 07:03:14;;;;;;;5.22;2.80;;;;;;;17.35;56.39;98094.41;5094246;28;20071;-59
2023/03/14 07:05:43;;;;;;;5.63;3.30;;;;;;;17.46;56.05;98091.69;5095573;28;20032;-60
2023/03/14 07:08:08;;;;;;;5.32;3.50;;;;;;;17.51;56.05;98093.94;5095407;28;20032;-59
2023/03/14 07:10:34;;;;;;;6.63;4.07;;;;;;;17.59;56.05;98087.97;5093933;28;20047;-60
2023/03/14 07:12:59;;;;;;;6.00;4.03;;;;;;;17.67;55.84;98091.66;5095478;28;20039;-59
2023/03/14 07:15:25;;;;;;;8.13;4.20;;;;;;;17.83;55.43;98091.16;5095403;28;20043;-59
2023/03/14 07:17:51;;;;;;;5.88;3.53;;;;;;;17.93;55.36;98091.22;5095334;28;20085;-59
2023/03/14 07:20:17;;;;;;;7.68;4.00;;;;;;;18.08;55.04;98087.22;5095057;28;20508;-59
2023/03/14 07:22:42;;;;;;;6.40;3.30;;;;;;;18.23;54.58;98082.34;5095288;28;20031;-59
2023/03/14 07:25:11;;;;;;;7.10;4.20;;;;;;;18.29;54.51;98073.81;5094887;28;20024;-59
2023/03/14 07:27:37;;;;;;;8.38;4.50;;;;;;;18.35;54.45;98070.63;5095111;28;20054;-59
2023/03/14 07:30:02;;;;;;;7.13;4.07;;;;;;;18.34;54.07;98060.94;5095082;28;20361;-59
2023/03/14 07:32:28;;;;;;;6.40;4.18;;;;;;;18.45;53.94;98052.84;5095437;28;20131;-59
2023/03/14 07:34:53;;;;;;;6.55;4.05;;;;;;;18.52;54.06;98049.66;5095192;28;20059;-59
2023/03/14 07:37:19;;;;;;;5.18;3.50;;;;;;;18.42;54.20;98060.25;5094621;28;20452;-59
2023/03/14 07:39:44;;;;;;;5.38;2.88;;;;;;;18.46;54.16;98065.16;5093192;28;20040;-59
2023/03/14 07:42:10;;;;;;;5.53;3.10;;;;;;;18.50;54.12;98056.91;5094931;28;20384;-59
2023/03/14 07:44:37;;;;;;;4.45;2.90;;;;;;;18.55;53.98;98059.97;5094923;28;20058;-59
2023/03/14 07:47:03;;;;;;;5.32;3.38;;;;;;;18.58;53.64;98047.25;5094700;28;20028;-59
2023/03/14 07:49:28;;;;;;;3.88;2.50;;;;;;;18.57;53.92;98036.75;5094745;28;20039;-59
2023/03/14 07:51:53;;;;;;;4.35;2.88;;;;;;;18.55;53.80;98055.53;5094781;28;20046;-59
2023/03/14 07:54:19;;;;;;;6.10;3.30;;;;;;;18.49;53.82;98045.44;5094513;28;20028;-58
2023/03/14 07:56:44;;;;;;;3.55;3.03;;;;;;;18.51;53.78;98050.59;5094233;28;20040;-59
2023/03/14 07:59:10;;;;;;;5.78;3.33;;;;;;;18.43;53.99;98054.81;5094746;28;20036;-59
2023/03/14 08:01:36;;;;;;;3.92;3.33;;;;;;;18.47;53.74;98058.03;5094453;28;20392;-59
2023/03/14 08:04:01;;;;;;;5.15;3.47;;;;;;;18.44;54.02;98061.81;5094330;28;20471;-59
2023/03/14 08:06:27;;;;;;;5.18;3.00;;;;;;;18.44;53.93;98048.53;5093080;28;20085;-59
2023/03/14 08:08:52;;;;;;;3.97;2.88;;;;;;;18.50;53.91;98054.25;5094195;28;20036;-58
2023/03/14 08:11:18;;;;;;;4.63;2.97;;;;;;;18.42;53.94;98063.75;5094159;28;20051;-59
2023/03/14 08:13:49;;;;;;;6.18;3.13;;;;;;;18.43;53.86;98056.63;5094277;28;20039;-59
2023/03/14 08:16:16;;;;;;;3.90;2.75;;;;;;;18.52;53.49;98055.81;5094099;28;20035;-59
2023/03/14 08:18:41;;;;;;;5.07;3.70;;;;;;;18.56;53.54;98059.03;5092786;28;20032;-59
2023/03/14 08:21:07;;;;;;;5.63;3.67;;;;;;;18.64;53.46;98053.84;5093976;28;20043;-60
2023/03/14 08:23:32;;;;;;;5.25;3.10;;;;;;;18.72;53.02;98062.00;5093749;28;20039;-60
2023/03/14 08:25:57;;;;;;;5.30;3.40;;;;;;;18.73;53.23;98053.03;5075726;28;20024;-59
2023/03/14 08:28:23;;;;;;;4.50;2.88;;;;;;;18.83;52.77;98037.03;5093541;28;20030;-59
2023/03/14 08:30:48;;;;;;;6.13;3.65;;;;;;;18.95;52.83;98038.59;5093953;28;20036;-59
2023/03/14 08:33:14;;;;;;;6.53;4.05;;;;;;;19.00;52.52;98036.34;5094175;28;20536;-60
2023/03/14 08:35:39;;;;;;;9.57;5.40;;;;;;;19.08;52.27;98031.13;5092370;28;20074;-60
2023/03/14 08:38:05;;;;;;;12.38;5.55;;;;;;;19.09;52.09;98021.31;5093722;28;20048;-60
2023/03/14 08:40:30;;;;;;;11.50;5.97;;;;;;;19.13;52.17;98017.38;5094074;28;20044;-59
2023/03/14 08:42:56;;;;;;;9.13;5.70;;;;;;;19.11;51.88;98003.38;5092495;28;20043;-59
2023/03/14 08:45:23;;;;;;;9.75;5.57;;;;;;;19.10;52.01;97999.88;5093620;28;20032;-59
2023/03/14 08:47:48;;;;;;;7.95;4.78;;;;;;;19.14;51.78;98000.44;5093573;28;20160;-59
2023/03/14 08:50:14;;;;;;;7.25;4.63;;;;;;;19.19;51.65;98003.53;5092249;28;20032;-58
2023/03/14 08:52:42;;;;;;;6.72;4.57;;;;;;;19.16;51.60;97999.31;5092887;28;20081;-60
2023/03/14 08:55:08;;;;;;;6.55;4.07;;;;;;;19.20;51.67;98002.53;5092596;28;20093;-60
2023/03/14 08:57:34;;;;;;;6.28;4.38;;;;;;;19.22;51.29;98008.53;5092401;28;20034;-60
2023/03/14 09:00:00;;;;;;;7.65;4.82;;;;;;;19.35;50.95;98001.06;5092453;28;20119;-60
2023/03/14 09:02:26;;;;;;;8.20;5.47;;;;;;;19.48;51.14;98000.72;5093335;28;20035;-60
2023/03/14 09:04:52;;;;;;;8.38;4.43;;;;;;;19.47;50.95;97996.41;5093399;28;20532;-60
2023/03/14 09:07:18;;;;;;;7.10;4.35;;;;;;;19.52;50.77;98002.13;5092103;28;20032;-60
2023/03/14 09:09:44;;;;;;;6.00;3.30;;;;;;;19.50;50.60;98004.06;5072592;28;20051;-59
2023/03/14 09:12:09;;;;;;;4.05;3.00;;;;;;;19.60;50.49;98012.03;5073684;28;20466;-59
2023/03/14 09:14:35;;;;;;;5.85;3.55;;;;;;;19.61;50.62;98011.91;5092277;28;20063;-59
2023/03/14 09:17:02;;;;;;;4.63;3.47;;;;;;;19.61;50.45;98019.03;5092139;28;20027;-59
2023/03/14 09:19:27;;;;;;;5.35;3.47;;;;;;;19.42;50.66;98015.47;5093271;28;20050;-60
2023/03/14 09:21:53;;;;;;;5.07;3.58;;;;;;;19.50;50.67;98040.53;5093238;28;20036;-59
2023/03/14 09:24:19;;;;;;;4.90;3.03;;;;;;;19.22;50.92;98050.28;5093411;28;20059;-58
2023/03/14 09:26:44;;;;;;;4.50;3.05;;;;;;;19.14;51.28;98062.47;5093206;28;20071;-58
2023/03/14 09:29:10;;;;;;;5.13;3.92;;;;;;;19.06;51.26;98053.53;5093373;28;20035;-59
2023/03/14 09:31:35;;;;;;;4.90;3.25;;;;;;;19.09;51.08;98048.78;5093250;28;20383;-59
2023/03/14 09:34:01;;;;;;;8.02;3.58;;;;;;;18.86;51.73;98047.41;5093285;28;20463;-60
2023/03/14 09:36:27;;;;;;;5.30;3.40;;;;;;;18.79;51.82;98039.19;5091977;28;20044;-60
2023/03/14 09:38:52;;;;;;;5.35;3.58;;;;;;;18.76;51.64;98042.09;5093568;28;20052;-60
2023/03/14 09:41:23;;;;;;;5.35;3.58;;;;;;;18.72;52.02;98056.69;5092036;28;20044;-60
2023/03/14 09:43:58;;;;;;;5.35;3.33;;;;;;;18.74;51.73;98041.41;5093275;28;20039;-58
2023/03/14 09:46:24;;;;;;;5.63;3.28;;;;;;;18.77;51.59;98033.13;5093296;28;20039;-58
2023/03/14 09:48:49;;;;;;;5.03;3.33;;;;;;;18.68;51.70;98036.63;5093109;28;20028;-60
2023/03/14 09:51:20;;;;;;;5.20;3.28;;;;;;;18.62;51.87;98043.31;5091617;28;20043;-59
2023/03/14 09:53:47;;;;;;;7.55;3.78;;;;;;;18.57;51.87;98045.56;5091902;28;20032;-59
2023/03/14 09:56:18;;;;;;;7.18;3.63;;;;;;;18.51;51.89;98045.28;5093185;28;20068;-60
2023/03/14 09:58:48;;;;;;;4.85;3.40;;;;;;;18.39;52.07;98049.91;5093202;28;20153;-59
2023/03/14 10:01:18;;;;;;;5.13;3.20;;;;;;;18.32;52.28;98054.94;5092891;28;20032;-59
2023/03/14 10:03:46;;;;;;;5.70;3.15;;;;;;;18.34;52.11;98046.81;5096017;28;20074;-59
2023/03/14 10:06:13;;;;;;;4.43;3.25;;;;;;;18.28;52.36;98058.88;5096845;28;20032;-59
2023/03/14 10:08:43;;;;;;;4.68;2.80;;;;;;;18.29;52.20;98052.56;5096500;28;20123;-59
2023/03/14 10:11:18;;;;;;;5.95;3.55;;;;;;;18.29;52.23;98043.75;5095321;28;20529;-59
2023/03/14 10:14:07;;;;;;;6.32;3.53;;;;;;;18.05;52.63;98050.28;5094101;28;20036;-60
2023/03/14 10:16:44;;;;;;;4.45;3.00;;;;;;;18.14;52.40;98061.91;5094925;28;20038;-59
2023/03/14 10:19:15;;;;;;;5.15;2.88;;;;;;;18.07;52.43;98066.91;5095933;28;20486;-61
2023/03/14 10:21:43;;;;;;;6.50;3.38;;;;;;;18.14;52.41;98057.44;5095855;28;20111;-59
2023/03/14 10:24:18;;;;;;;4.10;2.78;;;;;;;18.19;52.53;98055.22;5096403;28;20086;-59
2023/03/14 10:26:48;;;;;;;6.18;3.38;;;;;;;18.32;52.23;98051.44;5095920;28;20032;-59
2023/03/14 10:29:13;;;;;;;6.65;3.90;;;;;;;18.42;51.94;98062.91;5095855;28;20040;-59
2023/03/14 10:32:03;;;;;;;4.95;3.35;;;;;;;18.36;51.79;98058.19;5094884;28;20036;-59
2023/03/14 10:34:37;;;;;;;4.80;3.47;;;;;;;18.37;51.81;98073.13;5096226;28;20032;-59
2023/03/14 10:37:22;;;;;;;5.22;3.65;;;;;;;18.42;51.76;98066.41;5095397;28;20056;-59
2023/03/14 10:39:50;;;;;;;13.00;8.68;;;;;;;18.48;51.79;98061.53;5095136;28;20105;-59
2023/03/14 10:42:31;;;;;;;8.00;5.32;;;;;;;18.41;51.64;98066.56;5094814;28;20024;-59
2023/03/14 10:45:00;;;;;;;8.63;4.32;;;;;;;18.48;51.68;98057.06;5095116;28;20036;-59
2023/03/14 10:47:28;;;;;;;5.60;4.05;;;;;;;18.55;51.55;98055.53;5094758;28;20124;-59
2023/03/14 10:49:55;;;;;;;4.78;3.97;;;;;;;18.56;51.57;98045.72;5095241;28;20429;-59
2023/03/14 10:52:29;;;;;;;5.35;3.80;;;;;;;18.58;51.23;98046.41;5095079;28;20058;-59
2023/03/14 10:54:58;;;;;;;5.00;3.30;;;;;;;18.57;51.33;98042.09;5095342;28;20036;-59
2023/03/14 10:57:25;;;;;;;6.18;3.28;;;;;;;18.64;51.00;98035.22;5095542;28;20024;-59
2023/03/14 10:59:52;;;;;;;7.57;3.80;;;;;;;18.81;50.98;98039.03;5094168;28;20356;-59
2023/03/14 11:02:33;;;;;;;3.90;3.10;;;;;;;18.69;50.61;98046.28;5095632;28;20068;-59
2023/03/14 11:05:28;;;;;;;4.78;3.17;;;;;;;18.92;50.18;98041.53;5092681;28;20059;-59
2023/03/14 11:08:02;;;;;;;6.70;3.50;;;;;;;19.10;50.00;98034.47;5093246;28;20047;-59
2023/03/14 11:10:39;;;;;;;5.22;3.35;;;;;;;19.13;50.24;98038.69;5095270;28;20081;-59
2023/03/14 11:13:25;;;;;;;5.57;3.15;;;;;;;19.21;50.27;98038.81;5095486;28;20036;-59
2023/03/14 11:16:16;;;;;;;4.63;2.63;;;;;;;19.04;49.73;98037.72;5095107;28;20028;-59
2023/03/14 11:19:14;;;;;;;5.32;3.10;;;;;;;19.15;49.79;98047.34;5058569;28;20044;-59
2023/03/14 11:21:54;;;;;;;5.63;3.20;;;;;;;19.17;49.39;98043.56;5049596;28;20164;-59
2023/03/14 11:24:41;;;;;;;6.05;3.80;;;;;;;19.34;49.01;98031.31;5095257;28;20105;-59
2023/03/14 11:27:15;;;;;;;4.97;2.60;;;;;;;19.55;49.21;98028.47;5093727;28;20056;-59
2023/03/14 11:29:44;;;;;;;4.22;3.03;;;;;;;19.99;48.66;98023.34;5095295;28;20072;-59
2023/03/14 11:32:21;;;;;;;4.75;3.00;;;;;;;20.12;47.97;98028.31;5093852;28;20039;-59
2023/03/14 11:34:58;;;;;;;4.30;2.85;;;;;;;20.14;47.42;98034.31;5095395;28;20048;-59
2023/03/14 11:37:36;;;;;;;4.88;2.88;;;;;;;19.87;47.49;98038.72;5094839;28;20052;-59